Time;durP1;ratioP1;P1;durP2;ratioP2;P2;SDS_P1;SDS_P2;PMS_P1;PMS_P2;Temp;Humidity;BMP_temperature;BMP_pressure;BME280_temperature;BME280_humidity;BME280_pressure;Samples;Min_cycle;Max_cycle;Signal;HPM_P1;HPM_P2
2024/01/06 00:00:51;;;;;;;;;57.00;45.50;;;;;12.26;73.04;100988.97;146608;565;46012;-79
2024/01/06 00:03:44;;;;;;;;;52.00;41.50;;;;;12.20;74.17;100986.94;146614;573;46020;-80
2024/01/06 00:06:41;;;;;;;;;29.00;25.75;;;;;12.13;74.39;100991.78;146617;591;46012;-79
2024/01/06 00:09:36;;;;;;;;;37.50;28.75;;;;;12.04;74.74;100989.63;146620;581;46010;-82
2024/01/06 00:12:28;;;;;;;;;25.75;23.50;;;;;11.96;74.44;100990.94;146614;607;46016;-79
2024/01/06 00:15:37;;;;;;;;;24.00;21.50;;;;;10.95;73.05;100823.09;146619;610;46011;-80
2024/01/06 00:18:32;;;;;;;;;20.50;16.00;;;;;11.84;74.50;100986.00;146609;699;47016;-80
2024/01/06 00:21:40;;;;;;;;;21.25;17.75;;;;;11.77;74.51;100983.88;146618;610;46020;-80
2024/01/06 00:24:32;;;;;;;;;16.50;16.00;;;;;11.70;74.75;100981.81;146615;608;46017;-81
2024/01/06 00:27:35;;;;;;;;;16.00;14.75;;;;;11.68;73.86;100978.22;146621;602;46014;-80
2024/01/06 00:30:34;;;;;;;;;11.25;11.25;;;;;11.67;74.75;100971.25;146616;567;46016;-80
2024/01/06 00:33:33;;;;;;;;;10.75;9.50;;;;;11.73;75.55;100968.97;146618;566;47020;-81
2024/01/06 00:36:28;;;;;;;;;9.50;9.25;;;;;11.80;75.98;100965.84;146613;594;46915;-79
2024/01/06 00:39:27;;;;;;;;;8.50;8.00;;;;;11.88;75.98;100959.37;146625;610;45020;-74
2024/01/06 00:42:30;;;;;;;;;7.00;7.00;;;;;11.96;75.50;100965.87;146617;609;47016;-74
2024/01/06 00:45:22;;;;;;;;;15.00;12.00;;;;;12.01;75.25;100951.38;146621;616;46014;-74
2024/01/06 00:48:15;;;;;;;;;30.75;29.00;;;;;12.07;75.00;100948.19;146615;624;46016;-78
2024/01/06 00:51:10;;;;;;;;;14.75;11.50;;;;;12.14;74.76;100952.84;146619;634;46010;-75
2024/01/06 00:54:05;;;;;;;;;9.25;9.00;;;;;12.16;74.42;100948.63;146615;618;46915;-76
2024/01/06 00:57:03;;;;;;;;;22.50;20.50;;;;;12.21;74.27;100956.63;146620;581;47020;-76
2024/01/06 00:59:58;;;;;;;;;21.00;18.50;;;;;12.23;74.03;100947.22;146615;574;46017;-75
2024/01/06 01:02:58;;;;;;;;;24.25;21.00;;;;;12.27;73.44;100948.25;146620;574;46021;-75
2024/01/06 01:06:02;;;;;;;;;35.75;31.25;;;;;12.28;73.51;100955.25;146612;619;47915;-76
2024/01/06 01:08:55;;;;;;;;;33.25;29.25;;;;;12.31;73.60;100958.00;146618;606;46020;-74
2024/01/06 01:11:51;;;;;;;;;30.75;28.50;;;;;12.29;73.85;100949.22;146613;573;46016;-79
2024/01/06 01:15:01;;;;;;;;;45.25;34.00;;;;;12.22;73.74;100951.53;146619;651;46021;-80
2024/01/06 01:18:03;;;;;;;;;46.00;37.50;;;;;12.10;73.60;100953.53;146614;572;46012;-78
2024/01/06 01:20:58;;;;;;;;;44.50;35.50;;;;;12.03;74.26;100951.47;146620;570;47015;-78
2024/01/06 01:23:50;;;;;;;;;45.25;37.25;;;;;11.97;74.39;100949.44;146614;579;46017;-79
2024/01/06 01:26:48;;;;;;;;;39.25;32.50;;;;;11.90;74.42;100939.56;146617;580;46010;-75
2024/01/06 01:29:43;;;;;;;;;41.25;35.00;;;;;11.81;76.04;100941.69;146611;578;47016;-75
2024/01/06 01:32:36;;;;;;;;;50.25;38.50;;;;;11.72;75.58;100941.22;146620;583;46020;-75
2024/01/06 01:35:31;;;;;;;;;39.00;35.00;;;;;11.66;75.54;100936.59;146616;575;47012;-81
2024/01/06 01:38:27;;;;;;;;;32.00;29.75;;;;;11.66;75.58;100944.41;146618;586;46010;-77
2024/01/06 01:41:28;;;;;;;;;32.50;28.50;;;;;11.64;75.97;100934.75;146613;694;46914;-77
2024/01/06 01:44:22;;;;;;;;;26.00;24.00;;;;;11.57;75.71;100934.44;146616;691;46021;-77
2024/01/06 01:47:23;;;;;;;;;25.75;24.75;;;;;11.50;75.08;100929.75;146613;603;47914;-75
2024/01/06 01:50:22;;;;;;;;;22.75;20.50;;;;;11.42;75.40;100940.56;146612;594;47010;-76
2024/01/06 01:53:26;;;;;;;;;;;;;;;;;;;;;
2024/01/06 01:56:26;;;;;;;;;46.00;35.50;;;;;11.21;75.76;100940.34;146621;704;46010;-74
2024/01/06 01:59:24;;;;;;;;;27.50;25.25;;;;;11.11;75.17;100936.38;146616;602;46017;-75
2024/01/06 02:02:22;;;;;;;;;23.75;21.75;;;;;11.04;75.19;100932.56;146617;572;46020;-74
2024/01/06 02:05:20;;;;;;;;;15.00;13.75;;;;;11.04;74.96;100931.69;146615;565;46016;-75
2024/01/06 02:08:12;;;;;;;;;13.25;12.50;;;;;11.04;75.67;100919.59;146618;585;46021;-73
2024/01/06 02:11:08;;;;;;;;;15.00;13.25;;;;;11.07;75.58;100924.06;146616;577;47014;-73
2024/01/06 02:14:03;;;;;;;;;14.25;14.00;;;;;11.07;74.93;100919.75;146617;676;47021;-74
2024/01/06 02:16:58;;;;;;;;;12.50;11.00;;;;;11.06;76.34;100917.97;146619;569;46012;-75
2024/01/06 02:19:54;;;;;;;;;11.50;10.00;;;;;11.04;75.63;100914.41;146617;575;46020;-73
2024/01/06 02:22:47;;;;;;;;;10.00;9.75;;;;;11.03;75.54;100912.63;146616;601;47012;-74
2024/01/06 02:25:45;;;;;;;;;15.00;12.00;;;;;10.15;76.25;100761.84;146621;594;46020;-77
2024/01/06 02:28:40;;;;;;;;;14.00;11.75;;;;;11.02;75.76;100909.94;146616;578;46017;-77
2024/01/06 02:31:33;;;;;;;;;11.00;10.00;;;;;11.05;75.82;100907.50;146618;582;46020;-78
2024/01/06 02:34:28;;;;;;;;;10.75;10.25;;;;;11.08;75.69;100902.47;146617;602;47012;-77
2024/01/06 02:37:29;;;;;;;;;11.25;9.75;;;;;11.14;74.68;100907.09;146619;632;46010;-81
2024/01/06 02:40:34;;;;;;;;;22.50;18.75;;;;;10.23;73.73;100749.31;146614;581;46915;-83
2024/01/06 02:43:29;;;;;;;;;14.50;14.00;;;;;11.20;75.39;100910.91;146619;610;47010;-79
2024/01/06 02:46:32;;;;;;;;;19.00;18.00;;;;;11.24;75.17;100917.12;146615;576;46016;-82
2024/01/06 02:49:29;;;;;;;;;16.50;13.00;;;;;11.27;75.23;100912.09;146620;634;46010;-81
2024/01/06 02:52:24;;;;;;;;;19.00;15.25;;;;;11.29;75.14;100906.19;146618;627;45017;-80
2024/01/06 02:55:16;;;;;;;;;21.00;15.00;;;;;11.25;75.26;100908.56;146620;563;47020;-80
2024/01/06 02:58:27;;;;;;;;;29.25;25.50;;;;;11.16;74.30;100936.62;146612;572;47915;-80
2024/01/06 03:01:29;;;;;;;;;22.50;18.50;;;;;11.09;75.04;100901.69;146616;599;46010;-77
2024/01/06 03:04:39;;;;;;;;;20.75;18.50;;;;;10.14;75.16;100730.69;146616;595;46013;-79
2024/01/06 03:07:42;;;;;;;;;18.25;15.00;;;;;10.99;75.49;100883.81;146618;610;46010;-79
2024/01/06 03:10:42;;;;;;;;;15.75;13.00;;;;;10.94;75.75;100885.31;146618;621;46012;-78
2024/01/06 03:13:37;;;;;;;;;13.75;13.75;;;;;10.94;75.25;100895.69;146615;581;46010;-78
2024/01/06 03:16:38;;;;;;;;;19.00;16.50;;;;;10.95;76.23;100889.69;146614;694;46034;-76
2024/01/06 03:19:37;;;;;;;;;10.50;9.25;;;;;10.95;75.18;100889.69;146617;573;46021;-73
2024/01/06 03:22:32;;;;;;;;;11.00;10.00;;;;;10.96;75.29;100892.34;146615;609;46012;-72
2024/01/06 03:25:27;;;;;;;;;7.25;7.25;;;;;10.98;74.93;100895.03;146617;695;46031;-72
2024/01/06 03:28:21;;;;;;;;;9.25;8.00;;;;;10.96;73.70;100897.53;146617;599;47012;-73
2024/01/06 03:31:23;;;;;;;;;9.50;6.50;;;;;10.91;73.71;100888.63;146621;575;46020;-73
2024/01/06 03:34:17;;;;;;;;;6.00;5.50;;;;;10.87;72.66;100891.84;146616;674;46915;-72
2024/01/06 03:37:13;;;;;;;;;14.00;12.25;;;;;10.86;72.77;100895.28;146619;567;47010;-74
2024/01/06 03:40:08;;;;;;;;;13.25;11.50;;;;;10.84;72.33;100900.41;146615;563;47012;-75
2024/01/06 03:43:02;;;;;;;;;13.25;12.00;;;;;10.86;72.87;100897.87;146613;645;47010;-80
2024/01/06 03:45:56;;;;;;;;;12.50;10.50;;;;;10.83;72.60;100893.41;146610;616;46012;-77
2024/01/06 03:48:52;;;;;;;;;15.25;13.00;;;;;10.78;72.03;100894.00;146617;563;46010;-76
2024/01/06 03:52:01;;;;;;;;;10.00;8.50;;;;;9.87;72.36;100745.66;146614;592;46016;-75
2024/01/06 03:55:08;;;;;;;;;;;;;;;;;;;;;
2024/01/06 03:58:09;;;;;;;;;8.50;8.00;;;;;10.62;72.29;100889.66;146616;614;46014;-82
2024/01/06 04:01:04;;;;;;;;;8.75;5.50;;;;;10.61;72.63;100893.97;146621;625;46010;-77
2024/01/06 04:04:03;;;;;;;;;4.75;4.75;;;;;10.63;72.42;100892.34;146618;645;46016;-73
2024/01/06 04:07:08;;;;;;;;;;;;;;;;;;;;;
2024/01/06 04:10:01;;;;;;;;;5.50;5.00;;;;;10.69;72.30;100886.62;146617;586;46016;-75
2024/01/06 04:12:54;;;;;;;;;5.25;5.25;;;;;10.74;72.29;100884.25;146618;697;47014;-76
2024/01/06 04:15:55;;;;;;;;;5.25;5.25;;;;;10.77;71.95;100882.69;146620;582;46016;-81
2024/01/06 04:18:54;;;;;;;;;31.25;27.25;;;;;10.79;71.99;100881.09;146621;602;46020;-84
2024/01/06 04:21:54;;;;;;;;;14.50;14.50;;;;;10.79;71.48;100875.03;146612;617;47023;-74
2024/01/06 04:24:53;;;;;;;;;56.25;44.25;;;;;10.81;71.61;100870.78;146619;588;46010;-75
2024/01/06 04:27:46;;;;;;;;;32.00;30.25;;;;;10.83;71.52;100877.84;146610;580;46016;-78
2024/01/06 04:30:40;;;;;;;;;34.00;30.00;;;;;10.83;71.67;100890.81;146615;597;46010;-85
2024/01/06 04:33:37;;;;;;;;;13.75;13.75;;;;;10.82;71.89;100893.34;146612;570;47012;-83
2024/01/06 04:36:29;;;;;;;;;17.00;14.75;;;;;10.76;71.71;100893.91;146617;592;46020;-77
2024/01/06 04:39:21;;;;;;;;;30.50;26.00;;;;;10.72;72.21;100888.47;146617;604;46014;-78
2024/01/06 04:42:23;;;;;;;;;;;;;;;;;;;;;
2024/01/06 04:45:28;;;;;;;;;33.00;29.75;;;;;10.72;72.09;100898.84;146613;622;48016;-88
2024/01/06 04:48:26;;;;;;;;;28.00;26.00;;;;;10.75;72.07;100904.22;146615;599;46010;-89
2024/01/06 04:51:21;;;;;;;;;16.75;14.50;;;;;10.77;72.07;100902.56;146609;616;47016;-85
2024/01/06 04:54:13;;;;;;;;;10.25;9.00;;;;;10.76;71.94;100898.19;146616;711;46020;-85
2024/01/06 04:57:23;;;;;;;;;15.25;12.00;;;;;10.71;72.65;100913.50;146618;617;45915;-88
2024/01/06 05:00:20;;;;;;;;;17.50;16.00;;;;;10.61;73.12;100906.94;146618;588;46010;-78
2024/01/06 05:03:13;;;;;;;;;22.75;19.50;;;;;10.59;73.71;100902.47;146616;573;46017;-73
2024/01/06 05:06:05;;;;;;;;;28.50;26.75;;;;;10.58;73.76;100893.81;146616;610;47010;-74
2024/01/06 05:09:01;;;;;;;;;17.25;14.00;;;;;10.55;73.34;100896.22;146616;625;46012;-73
2024/01/06 05:11:56;;;;;;;;;21.25;18.00;;;;;10.50;73.13;100891.59;146616;585;47010;-77
2024/01/06 05:14:48;;;;;;;;;32.25;29.25;;;;;10.41;73.66;100889.44;146615;637;47016;-76
2024/01/06 05:17:43;;;;;;;;;21.75;18.75;;;;;10.38;74.35;100891.84;146619;596;46020;-75
2024/01/06 05:20:40;;;;;;;;;22.75;18.25;;;;;10.33;74.06;100888.09;146615;614;46012;-76
2024/01/06 05:23:39;;;;;;;;;29.00;28.00;;;;;10.33;74.29;100888.09;146620;571;46014;-77
2024/01/06 05:26:37;;;;;;;;;29.25;24.00;;;;;10.33;74.33;100896.75;146616;604;46028;-76
2024/01/06 05:29:48;;;;;;;;;11.50;10.00;;;;;10.34;75.44;100892.47;146618;603;47010;-77
2024/01/06 05:32:45;;;;;;;;;17.75;16.00;;;;;10.34;77.46;100893.38;146616;634;46034;-78
2024/01/06 05:35:44;;;;;;;;;20.50;18.50;;;;;10.35;77.21;100894.28;146621;565;46010;-77
2024/01/06 05:38:43;;;;;;;;;56.75;44.25;;;;;10.36;77.11;100883.97;146616;599;46016;-77
2024/01/06 05:41:44;;;;;;;;;19.25;16.50;;;;;10.37;76.25;100880.59;146616;578;47010;-78
2024/01/06 05:44:43;;;;;;;;;20.25;18.75;;;;;10.35;76.48;100878.72;146616;593;46012;-78
2024/01/06 05:47:39;;;;;;;;;23.00;19.75;;;;;10.35;77.08;100887.38;146620;569;45032;-80
2024/01/06 05:50:46;;;;;;;;;24.75;23.25;;;;;10.36;75.96;100880.50;146614;574;46016;-79
2024/01/06 05:53:44;;;;;;;;;22.25;19.00;;;;;10.36;76.81;100880.50;146617;580;46014;-80
2024/01/06 05:56:36;;;;;;;;;16.00;15.00;;;;;10.39;77.05;100883.25;146614;597;46017;-79
2024/01/06 05:59:37;;;;;;;;;20.50;18.00;;;;;10.41;76.79;100866.09;146612;597;46020;-81
2024/01/06 06:02:34;;;;;;;;;38.75;33.25;;;;;10.40;77.33;100864.28;146615;585;46017;-80
2024/01/06 06:05:32;;;;;;;;;24.75;22.00;;;;;10.34;78.15;100863.94;146613;622;46010;-80
2024/01/06 06:08:26;;;;;;;;;18.75;17.75;;;;;10.31;78.37;100854.34;146619;617;46012;-80
2024/01/06 06:11:21;;;;;;;;;16.00;14.00;;;;;10.33;77.97;100847.53;146622;588;46021;-80
2024/01/06 06:14:23;;;;;;;;;15.50;14.50;;;;;10.38;77.98;100850.37;146615;609;47019;-74
2024/01/06 06:17:16;;;;;;;;;18.75;16.75;;;;;10.40;77.99;100848.72;146621;596;47010;-74
2024/01/06 06:20:11;;;;;;;;;21.75;18.00;;;;;10.42;77.73;100841.94;146617;592;46012;-74
2024/01/06 06:23:09;;;;;;;;;21.50;18.25;;;;;10.47;78.19;100843.09;146622;569;46010;-73
2024/01/06 06:26:03;;;;;;;;;13.25;12.25;;;;;10.53;77.99;100840.81;146617;595;46012;-74
2024/01/06 06:29:14;;;;;;;;;19.50;17.75;;;;;9.70;77.08;100682.59;146620;570;47035;-74
2024/01/06 06:32:18;;;;;;;;;21.50;18.00;;;;;10.67;78.26;100846.72;146618;585;46017;-74
2024/01/06 06:35:17;;;;;;;;;20.75;17.75;;;;;10.78;78.12;100855.09;146619;581;46010;-79
2024/01/06 06:38:20;;;;;;;;;18.25;16.25;;;;;10.89;78.16;100848.75;146616;617;46017;-75
2024/01/06 06:41:26;;;;;;;;;18.00;15.00;;;;;11.01;78.07;100861.47;146618;569;47020;-77
2024/01/06 06:44:31;;;;;;;;;21.75;20.00;;;;;11.10;77.72;100860.22;146613;576;46016;-80
2024/01/06 06:47:25;;;;;;;;;24.75;22.25;;;;;11.22;77.77;100867.75;146620;565;46010;-81
2024/01/06 06:50:23;;;;;;;;;31.75;29.75;;;;;11.30;77.94;100863.81;146615;604;46914;-80
2024/01/06 06:53:18;;;;;;;;;40.00;32.75;;;;;11.40;77.03;100860.00;146620;564;47024;-76
2024/01/06 06:56:17;;;;;;;;;40.50;35.00;;;;;11.48;77.53;100863.84;146616;685;46914;-76
2024/01/06 06:59:09;;;;;;;;;50.00;38.00;;;;;11.75;78.26;100861.72;146620;615;46010;-75
2024/01/06 07:02:03;;;;;;;;;47.00;38.75;;;;;12.22;80.67;100862.25;146615;571;46013;-75
2024/01/06 07:04:58;;;;;;;;;48.50;40.00;;;;;13.04;81.92;100861.59;146619;653;46010;-76
2024/01/06 07:07:57;;;;;;;;;46.50;37.25;;;;;13.79;76.37;100862.16;146615;631;47012;-77
2024/01/06 07:10:50;;;;;;;;;42.25;35.25;;;;;14.13;71.17;100861.78;146618;588;46020;-78
2024/01/06 07:13:45;;;;;;;;;40.00;32.75;;;;;14.18;68.52;100862.84;146615;607;46022;-77
2024/01/06 07:16:49;;;;;;;;;39.75;33.50;;;;;14.08;67.80;100858.09;146615;626;47014;-78
2024/01/06 07:19:52;;;;;;;;;36.25;33.00;;;;;13.94;67.89;100857.56;146615;616;46914;-79
2024/01/06 07:22:49;;;;;;;;;32.25;29.75;;;;;13.81;69.57;100857.91;146618;584;46015;-80
2024/01/06 07:25:44;;;;;;;;;40.50;31.75;;;;;13.66;70.28;100860.78;146614;579;46036;-80
2024/01/06 07:28:53;;;;;;;;;;;;;;;;;;;;;
2024/01/06 07:31:58;;;;;;;;;33.75;31.25;;;;;13.61;72.90;100862.28;146617;667;46012;-74
2024/01/06 07:34:56;;;;;;;;;22.00;19.00;;;;;13.61;76.26;100863.19;146614;612;49010;-76
2024/01/06 07:37:51;;;;;;;;;35.25;30.50;;;;;13.66;75.36;100865.97;146615;589;47012;-76
2024/01/06 07:40:56;;;;;;;;;32.00;26.25;;;;;13.70;75.15;100870.47;146615;586;46020;-76
2024/01/06 07:43:58;;;;;;;;;45.50;36.00;;;;;13.76;74.88;100865.53;146618;582;46012;-76
2024/01/06 07:47:08;;;;;;;;;;;;;;;;;;;;;
2024/01/06 07:50:05;;;;;;;;;73.25;60.50;;;;;13.86;73.74;100861.56;146615;604;46014;-76
2024/01/06 07:53:01;;;;;;;;;74.33;62.00;;;;;13.87;73.23;100863.38;146618;613;46010;-77
2024/01/06 07:56:03;;;;;;;;;75.00;60.67;;;;;13.93;71.88;100857.50;146614;600;47014;-78
2024/01/06 07:59:03;;;;;;;;;77.00;66.67;;;;;13.96;71.62;100855.03;146617;577;46021;-78
2024/01/06 08:01:56;;;;;;;;;68.00;57.25;;;;;13.97;71.11;100856.78;146615;564;46014;-76
2024/01/06 08:04:48;;;;;;;;;72.75;59.00;;;;;13.98;71.00;100850.75;146616;574;46020;-77
2024/01/06 08:07:46;;;;;;;;;72.50;61.75;;;;;14.00;71.25;100851.69;146615;682;46017;-77
2024/01/06 08:10:50;;;;;;;;;75.00;62.33;;;;;14.04;70.75;100859.69;146620;636;46010;-76
2024/01/06 08:13:44;;;;;;;;;86.00;75.00;;;;;14.10;71.40;100856.44;146618;651;46012;-76
2024/01/06 08:16:40;;;;;;;;;76.67;67.00;;;;;14.16;70.75;100859.28;146621;595;47020;-76
2024/01/06 08:19:49;;;;;;;;;;;;;;;;;;;;;
2024/01/06 08:22:50;;;;;;;;;72.50;59.25;;;;;14.26;70.28;100855.31;146617;632;46031;-76
2024/01/06 08:25:48;;;;;;;;;75.33;63.67;;;;;14.30;69.12;100868.53;146617;580;46016;-75
2024/01/06 08:28:54;;;;;;;;;84.33;75.33;;;;;14.33;69.29;100859.94;146627;626;46021;-74
2024/01/06 08:31:51;;;;;;;;;94.67;87.00;;;;;14.39;69.65;100859.28;146622;675;47012;-76
2024/01/06 08:34:45;;;;;;;;;92.67;82.00;;;;;14.41;69.28;100849.78;146625;650;46020;-76
2024/01/06 08:37:51;;;;;;;;;65.00;50.33;;;;;14.45;69.47;100849.94;146621;623;46016;-75
2024/01/06 08:40:47;;;;;;;;;67.25;52.75;;;;;14.50;69.53;100847.53;146623;640;46020;-77
2024/01/06 08:43:40;;;;;;;;;69.50;54.50;;;;;14.54;70.09;100846.84;146610;583;48012;-76
2024/01/06 08:46:36;;;;;;;;;67.25;53.75;;;;;14.61;70.39;100838.41;146616;686;46020;-76
2024/01/06 08:49:34;;;;;;;;;67.25;51.25;;;;;14.73;70.44;100840.56;146612;573;46016;-75
2024/01/06 08:52:27;;;;;;;;;58.75;47.25;;;;;14.84;70.62;100843.56;146617;594;46021;-75
2024/01/06 08:55:24;;;;;;;;;55.50;44.25;;;;;14.95;70.25;100850.06;146614;584;47012;-77
2024/01/06 08:58:17;;;;;;;;;51.50;42.25;;;;;15.09;70.64;100846.22;146618;610;46021;-76
2024/01/06 09:01:13;;;;;;;;;56.50;43.00;;;;;15.24;71.16;100838.91;146614;604;46918;-76
2024/01/06 09:04:11;;;;;;;;;54.50;44.00;;;;;15.39;70.79;100833.31;146620;636;46014;-76
2024/01/06 09:07:03;;;;;;;;;62.75;48.50;;;;;15.57;69.59;100827.78;146611;632;46016;-76
2024/01/06 09:10:07;;;;;;;;;60.00;47.00;;;;;15.74;69.04;100828.38;146615;618;46020;-78
2024/01/06 09:13:01;;;;;;;;;60.50;48.00;;;;;15.95;70.27;100833.41;146612;587;46012;-77
2024/01/06 09:16:00;;;;;;;;;68.75;54.50;;;;;16.15;68.71;100819.19;146614;632;46010;-76
2024/01/06 09:19:03;;;;;;;;;71.00;55.75;;;;;16.34;68.37;100815.38;146612;597;46917;-78
2024/01/06 09:21:56;;;;;;;;;68.00;51.75;;;;;16.47;66.65;100808.78;146615;659;46020;-76
2024/01/06 09:24:57;;;;;;;;;67.50;53.25;;;;;16.61;67.46;100804.84;146613;580;46032;-77
2024/01/06 09:28:00;;;;;;;;;72.33;65.00;;;;;15.17;66.61;100520.91;146617;592;47028;-78
2024/01/06 09:30:55;;;;;;;;;72.50;59.25;;;;;16.84;65.91;100787.16;146610;621;46016;-76
2024/01/06 09:33:49;;;;;;;;;64.00;50.00;;;;;16.93;66.02;100768.19;146615;570;47010;-78
2024/01/06 09:36:53;;;;;;;;;63.50;48.00;;;;;17.03;66.63;100757.09;146613;651;46016;-76
2024/01/06 09:39:45;;;;;;;;;16.50;16.50;;;;;17.09;63.13;100749.37;146609;588;46020;-76
2024/01/06 09:42:41;;;;;;;;;68.25;57.25;;;;;17.12;63.83;100748.56;146617;665;46012;-76
2024/01/06 09:45:40;;;;;;;;;73.00;67.00;;;;;17.08;64.58;100739.75;146617;670;47010;-78
2024/01/06 09:48:35;;;;;;;;;62.50;49.00;;;;;17.06;64.52;100740.56;146613;598;46012;-78
2024/01/06 09:51:36;;;;;;;;;36.00;29.75;;;;;16.99;63.65;100733.41;146612;597;47014;-78
2024/01/06 09:54:38;;;;;;;;;29.50;24.75;;;;;16.85;65.16;100720.84;146610;565;46016;-76
2024/01/06 09:57:45;;;;;;;;;25.25;20.00;;;;;16.72;63.87;100721.31;146615;572;46021;-77
2024/01/06 10:00:58;;;;;;;;;19.25;16.50;;;;;16.62;65.00;100724.56;146614;602;46016;-77
2024/01/06 10:03:53;;;;;;;;;32.75;29.25;;;;;16.59;66.34;100714.87;146619;566;46015;-76
2024/01/06 10:07:02;;;;;;;;;19.00;16.75;;;;;16.57;66.21;100719.22;146612;595;46917;-77
2024/01/06 10:10:01;;;;;;;;;17.75;16.25;;;;;16.59;66.63;100709.66;146620;559;45020;-77
2024/01/06 10:12:57;;;;;;;;;22.00;20.75;;;;;16.90;66.08;100712.22;146613;648;47016;-77
2024/01/06 10:16:04;;;;;;;;;16.25;13.50;;;;;17.23;64.89;100715.69;146618;589;46020;-78
2024/01/06 10:18:57;;;;;;;;;18.00;14.75;;;;;17.63;64.67;100699.97;146612;600;47013;-77
2024/01/06 10:22:20;;;;;;;;;12.00;11.00;;;;;17.97;63.69;100692.03;146621;572;46010;-76
2024/01/06 10:25:39;;;;;;;;;17.50;14.50;;;;;18.28;61.54;100666.34;146615;570;46016;-78
2024/01/06 10:28:31;;;;;;;;;10.33;9.00;;;;;18.65;60.76;100667.91;146621;618;46010;-77
2024/01/06 10:31:26;;;;;;;;;11.75;10.75;;;;;19.04;60.57;100664.22;146616;589;47012;-77
2024/01/06 10:34:19;;;;;;;;;8.50;7.25;;;;;19.44;57.79;100646.44;146618;583;47010;-76
2024/01/06 10:37:15;;;;;;;;;15.25;15.00;;;;;19.75;57.75;100633.69;146617;654;46014;-79
2024/01/06 10:40:39;;;;;;;;;7.33;6.33;;;;;20.00;54.12;100624.31;146620;569;46010;-77
2024/01/06 10:43:40;;;;;;;;;7.00;6.00;;;;;20.07;51.00;100616.53;146619;582;46037;-77
2024/01/06 10:46:39;;;;;;;;;7.33;7.33;;;;;20.00;51.95;100611.16;146621;598;46020;-77
2024/01/06 10:49:35;;;;;;;;;6.67;5.67;;;;;19.81;51.96;100605.72;146621;645;46013;-77
2024/01/06 10:52:36;;;;;;;;;8.00;7.00;;;;;19.69;51.94;100592.44;146621;564;47010;-77
2024/01/06 10:55:31;;;;;;;;;6.67;5.33;;;;;19.65;50.18;100602.87;146621;605;46012;-79
2024/01/06 10:58:52;;;;;;;;;7.00;7.00;;;;;19.53;52.64;100593.94;146624;642;46010;-79
2024/01/06 11:01:52;;;;;;;;;6.00;5.67;;;;;19.47;51.14;100579.81;146618;578;47012;-76
2024/01/06 11:04:52;;;;;;;;;11.75;11.75;;;;;19.27;52.36;100574.31;146619;565;47010;-76
2024/01/06 11:07:58;;;;;;;;;5.67;5.00;;;;;18.95;50.77;100563.34;146615;632;48012;-75
2024/01/06 11:11:00;;;;;;;;;10.00;9.00;;;;;18.57;50.54;100561.00;146619;625;47010;-76
2024/01/06 11:13:58;;;;;;;;;15.25;13.00;;;;;18.30;52.29;100564.91;146615;589;46041;-77
2024/01/06 11:16:57;;;;;;;;;6.00;6.00;;;;;18.11;54.12;100555.84;146621;620;47010;-77
2024/01/06 11:19:54;;;;;;;;;10.00;9.00;;;;;17.94;53.57;100542.44;146618;564;46012;-77
2024/01/06 11:22:51;;;;;;;;;4.00;4.00;;;;;17.81;53.01;100540.41;146625;603;45020;-77
2024/01/06 11:25:58;;;;;;;;;4.00;4.00;;;;;17.72;53.36;100537.56;146617;587;46917;-80
2024/01/06 11:29:01;;;;;;;;;7.00;7.00;;;;;17.68;54.43;100534.03;146619;585;46020;-82
2024/01/06 11:32:52;;;;;;;;;;;;;;;;;;;;;
2024/01/06 11:35:53;;;;;;;;;9.67;8.00;;;;;17.65;54.11;100535.69;146621;594;47010;-76
2024/01/06 11:39:03;;;;;;;;;8.00;5.67;;;;;17.65;54.01;100538.31;146620;564;46014;-76
2024/01/06 11:41:59;;;;;;;;;8.50;7.75;;;;;17.66;54.34;100535.75;146619;566;46021;-78
2024/01/06 11:45:10;;;;;;;;;9.67;7.67;;;;;17.60;54.50;100522.53;146617;584;46016;-79
2024/01/06 11:48:17;;;;;;;;;15.75;14.50;;;;;17.58;54.76;100512.84;146618;610;46021;-77
2024/01/06 11:51:12;;;;;;;;;16.00;13.00;;;;;17.55;55.39;100514.53;146614;665;46917;-79
2024/01/06 11:54:10;;;;;;;;;14.75;13.75;;;;;17.53;54.77;100499.62;146623;618;46021;-76
2024/01/06 11:57:11;;;;;;;;;11.00;8.50;;;;;17.53;54.76;100490.03;146614;596;46016;-77
2024/01/06 12:00:11;;;;;;;;;7.00;7.00;;;;;17.59;54.50;100491.00;146619;606;46022;-75
2024/01/06 12:03:05;;;;;;;;;9.00;7.50;;;;;17.66;54.90;100462.34;146615;678;46017;-79
2024/01/06 12:06:09;;;;;;;;;10.25;9.25;;;;;17.78;55.77;100472.16;146620;578;47010;-77
2024/01/06 12:09:19;;;;;;;;;8.25;7.25;;;;;18.00;55.02;100468.19;146620;659;47012;-80
2024/01/06 12:27:33;;;;;;;;;7.75;5.00;;;;;19.22;51.93;100447.19;146644;570;46010;-74
2024/01/06 12:30:27;;;;;;;;;9.00;7.00;;;;;19.30;52.12;100443.78;146621;589;47010;-70
2024/01/06 12:33:36;;;;;;;;;11.00;8.00;;;;;19.33;52.12;100419.28;146630;563;46020;-70
2024/01/06 12:36:34;;;;;;;;;9.00;6.75;;;;;19.56;51.99;100427.41;146621;609;46017;-70
2024/01/06 12:39:39;;;;;;;;;7.67;7.00;;;;;19.78;52.19;100423.25;146628;564;47020;-71
2024/01/06 12:42:36;;;;;;;;;8.33;8.33;;;;;19.97;50.76;100424.28;146624;575;46017;-72
2024/01/06 12:45:43;;;;;;;;;9.00;8.00;;;;;20.03;51.44;100414.72;146627;660;47008;-71
2024/01/06 12:48:37;;;;;;;;;7.33;7.00;;;;;20.03;50.95;100413.81;146623;586;47016;-71
2024/01/06 12:51:32;;;;;;;;;12.00;11.25;;;;;20.13;51.28;100397.25;146628;589;46021;-72
2024/01/06 12:54:25;;;;;;;;;5.00;5.00;;;;;20.23;50.04;100393.78;146621;615;46010;-69
2024/01/06 12:57:20;;;;;;;;;6.75;6.00;;;;;20.20;50.27;100385.87;146630;656;46020;-72
2024/01/06 13:00:25;;;;;;;;;7.67;7.67;;;;;20.19;51.02;100385.87;146624;569;46017;-71
2024/01/06 13:03:22;;;;;;;;;10.00;8.67;;;;;20.23;50.96;100380.63;146631;595;46020;-67
2024/01/06 13:06:35;;;;;;;;;12.33;9.00;;;;;20.16;53.38;100368.31;146624;573;46012;-71
2024/01/06 13:09:32;;;;;;;;;7.00;5.00;;;;;20.44;51.02;100379.00;146630;590;48008;-70
2024/01/06 13:12:28;;;;;;;;;6.33;6.00;;;;;20.81;50.80;100369.56;146624;599;46010;-69
2024/01/06 13:15:21;;;;;;;;;9.50;9.50;;;;;21.01;49.14;100351.16;146629;565;47008;-69
2024/01/06 13:18:19;;;;;;;;;9.00;8.00;;;;;21.15;50.33;100352.09;146625;625;46016;-70
2024/01/06 13:21:13;;;;;;;;;8.00;7.33;;;;;21.27;49.90;100342.41;146631;588;46020;-70
2024/01/06 13:24:06;;;;;;;;;7.00;6.00;;;;;21.24;48.23;100327.47;146618;597;47914;-67
2024/01/06 13:27:02;;;;;;;;;5.00;5.00;;;;;21.39;49.65;100329.28;146622;578;48008;-65
2024/01/06 13:29:55;;;;;;;;;19.50;18.25;;;;;21.58;47.83;100324.87;146618;704;46010;-73
2024/01/06 13:32:50;;;;;;;;;8.67;7.67;;;;;21.54;47.00;100331.94;146618;650;46020;-72
2024/01/06 13:35:56;;;;;;;;;4.00;4.00;;;;;21.38;46.70;100327.53;146618;637;46011;-72
2024/01/06 13:38:48;;;;;;;;;5.67;3.67;;;;;21.20;46.94;100320.44;146624;588;47008;-70
2024/01/06 13:41:46;;;;;;;;;7.00;5.00;;;;;21.05;47.01;100315.13;146617;607;46032;-71
2024/01/06 13:44:41;;;;;;;;;5.00;3.67;;;;;20.88;47.40;100323.00;146623;590;46021;-73
2024/01/06 13:47:41;;;;;;;;;3.67;3.67;;;;;20.74;47.91;100321.19;146619;579;46915;-70
2024/01/06 13:50:33;;;;;;;;;4.67;4.67;;;;;20.62;47.29;100315.88;146622;583;46028;-71
2024/01/06 13:53:28;;;;;;;;;6.00;4.00;;;;;20.63;48.54;100312.41;146616;625;46033;-72
2024/01/06 13:56:26;;;;;;;;;7.33;4.67;;;;;20.68;48.15;100315.03;146626;583;46008;-71
2024/01/06 13:59:21;;;;;;;;;5.00;4.67;;;;;20.68;47.20;100317.66;146618;584;46033;-73
2024/01/06 14:02:16;;;;;;;;;3.33;2.67;;;;;20.71;47.79;100310.66;146623;666;46020;-73
2024/01/06 14:05:14;;;;;;;;;4.33;3.67;;;;;20.06;48.12;100172.59;146619;575;46020;-73